Latest Weather Observations for Burketown Airport

IDQ60801

Issued at 7:02 pm EST Monday 22 April 2024 (issued every 10 minutes, with the page automatically refreshed every 10 minutes)

About weather observations | Map of weather stations | Latest weather observations for QLD | Other Formats
Station Details ID: 029077 Name: BURKETOWN AIRPORT Lat: -17.75 Lon: 139.54 Height: 5.7 m
Data from the previous 72 hours. | See also: Recent months at Burketown Airport
Date/Time
EST
Temp
°C
App
Temp
°C
Dew
Point
°C
Rel
Hum
%
Delta-T
°C
Wind Press
QNH
hPa
Press
MSL
hPa
Rain since
9am
mm
Dir  Spd
km/h
Gust
km/h
Spd
kts
Gust
kts
22/07:00pm - - - - - N 4 7 2 4 1011.7 1011.6 0.0
22/06:30pm - - - - - ESE 2 6 1 3 1011.4 1011.3 0.0
22/06:00pm - - - - - ESE 7 11 4 6 1011.0 1010.9 0.0
22/05:30pm - - - - - E 9 13 5 7 1010.8 1010.7 0.0
22/05:00pm - - - - - E 13 19 7 10 1010.5 1010.4 0.0
22/04:30pm - - - - - ESE 9 13 5 7 1010.3 1010.2 0.0
22/04:00pm - - - - - SE 11 20 6 11 1010.2 1010.1 0.0
22/03:30pm - - - - - ESE 9 15 5 8 1010.3 1010.2 0.0
22/03:00pm - - - - - E 13 24 7 13 1010.3 1010.2 0.0
22/02:30pm - - - - - E 11 24 6 13 1010.7 1010.6 0.0
22/02:00pm - - - - - E 15 24 8 13 1011.0 1010.9 0.0
22/01:30pm - - - - - ESE 13 24 7 13 1011.4 1011.3 0.0
22/01:00pm - - - - - ESE 17 26 9 14 1011.8 1011.7 0.0
22/12:30pm - - - - - ESE 19 28 10 15 1012.3 1012.2 0.0
22/12:00pm - - - - - E 20 28 11 15 1012.6 1012.5 0.0
22/11:30am - - - - - ESE 22 33 12 18 1013.0 1012.9 0.0
22/11:00am - - - - - ESE 22 30 12 16 1013.4 1013.3 0.0
22/10:30am - - - - - SE 20 26 11 14 1013.9 1013.8 0.0
22/10:00am - - - - - SE 24 30 13 16 1013.9 1013.8 0.0
22/09:30am - - - - - SE 26 35 14 19 1013.8 1013.7 0.0
22/09:00am - - - - - SE 24 33 13 18 1013.8 1013.7 0.0
22/08:30am - - - - - SE 26 35 14 19 1013.5 1013.4 0.0
22/08:00am - - - - - SSE 22 32 12 17 1013.4 1013.3 0.0
22/07:30am - - - - - SSE 19 24 10 13 1013.3 1013.2 0.0
22/07:00am - - - - - S 15 19 8 10 1013.2 1013.1 0.0
22/06:30am - - - - - S 17 20 9 11 1012.9 1012.8 0.0
22/06:00am - - - - - S 17 20 9 11 1012.6 1012.5 0.0
22/05:30am - - - - - S 19 24 10 13 1012.4 1012.3 0.0
22/05:00am - - - - - S 17 20 9 11 1012.3 1012.2 0.0
22/04:30am - - - - - SSE 17 22 9 12 1012.4 1012.3 0.0
22/04:00am - - - - - SSE 22 30 12 16 1012.3 1012.2 0.0
22/03:30am - - - - - SSE 20 26 11 14 1012.5 1012.4 0.0
22/03:00am - - - - - SSE 22 30 12 16 1012.6 1012.5 0.0
22/02:30am - - - - - SSE 22 28 12 15 1012.9 1012.8 0.0
22/02:00am - - - - - SSE 22 32 12 17 1013.1 1013.0 0.0
22/01:30am - - - - - SSE 20 26 11 14 1013.5 1013.4 0.0
22/01:00am - - - - - SSE 19 24 10 13 1013.8 1013.7 0.0
22/12:30am - - - - - SSE 22 32 12 17 1013.9 1013.8 0.0
22/12:00am - - - - - S 19 24 10 13 1013.9 1013.8 0.0
 
Date/Time
EST
Temp
°C
App
Temp
°C
Dew
Point
°C
Rel
Hum
%
Delta-T
°C
Wind Press
QNH
hPa
Press
MSL
hPa
Rain since
9am
mm
Dir  Spd
km/h
Gust
km/h
Spd
kts
Gust
kts
21/11:30pm - - - - - S 15 19 8 10 1014.3 1014.2 0.0
21/11:00pm - - - - - S 15 17 8 9 1014.4 1014.3 0.0
21/10:30pm - - - - - S 13 17 7 9 1014.6 1014.5 0.0
21/10:00pm 20.8 17.8 12.0 57 4.9 S 19 22 10 12 1014.5 1014.4 0.0
21/09:30pm 20.9 18.4 12.3 58 4.8 S 17 20 9 11 1014.6 1014.5 0.0
21/09:00pm 21.3 19.3 12.7 58 4.9 S 15 19 8 10 1014.6 1014.5 0.0
21/08:30pm 22.0 19.6 12.8 56 5.2 S 17 20 9 11 1014.2 1014.1 0.0
21/08:00pm 22.8 20.4 12.7 53 5.8 S 17 19 9 10 1013.8 1013.7 0.0
21/07:30pm 23.2 21.4 13.4 54 5.7 S 15 17 8 9 1013.4 1013.3 0.0
21/07:00pm 23.9 22.3 12.8 49 6.4 S 13 20 7 11 1012.9 1012.8 0.0
21/06:30pm 24.5 21.9 12.1 46 7.1 SSE 17 20 9 11 1012.5 1012.4 0.0
21/06:00pm 25.8 22.4 11.2 40 8.3 SSE 20 28 11 15 1012.2 1012.1 0.0
21/05:30pm 26.3 22.8 10.9 38 8.7 SSE 20 30 11 16 1012.0 1011.9 0.0
21/05:00pm 27.7 23.1 10.9 35 9.5 S 26 35 14 19 1011.8 1011.7 0.0
21/04:30pm 28.2 24.1 11.3 35 9.7 S 24 41 13 22 1011.7 1011.6 0.0
21/04:00pm 28.3 23.2 10.5 33 10.1 SSE 28 39 15 21 1011.8 1011.7 0.0
21/03:30pm 28.7 24.4 10.8 33 10.2 S 24 32 13 17 1011.9 1011.8 0.0
21/03:00pm 28.5 22.9 10.2 32 10.3 SSE 30 39 16 21 1012.0 1011.9 0.0
21/02:30pm 28.1 22.2 10.3 33 10.0 SSE 32 43 17 23 1012.2 1012.1 0.0
21/02:00pm 28.2 23.2 10.9 34 9.8 SSE 28 39 15 21 1012.5 1012.4 0.0
21/01:30pm 28.7 23.5 11.7 35 9.8 SSE 30 43 16 23 1012.9 1012.8 0.0
21/01:00pm 27.6 21.2 9.4 32 10.1 SSE 33 46 18 25 1013.2 1013.1 0.0
21/12:30pm 27.3 21.7 10.1 34 9.6 SSE 30 43 16 23 1013.7 1013.6 0.0
21/12:00pm 27.2 21.0 10.0 34 9.6 SE 33 44 18 24 1014.3 1014.2 0.0
21/11:30am 27.1 20.1 9.9 34 9.6 SE 37 48 20 26 1014.8 1014.7 0.0
21/11:00am 26.0 18.4 8.9 34 9.3 SE 39 52 21 28 1015.4 1015.3 0.0
21/10:30am 25.3 17.2 8.7 35 9.0 SE 41 56 22 30 1015.4 1015.3 0.0
21/10:02am 24.3 17.6 9.5 39 8.1 SE 35 54 19 29 1015.3 1015.2 0.0
21/10:00am 24.4 17.4 9.9 40 7.9 SE 37 54 20 29 1015.3 1015.2 0.0
21/09:46am 22.5 14.6 7.9 39 7.6 SE 39 57 21 31 1015.3 1015.2 0.0
21/09:44am 21.9 14.2 7.3 39 7.5 SE 37 54 20 29 1015.3 1015.2 0.0
21/09:40am 14.7 6.2 0.9 39 5.9 SE 35 54 19 29 1015.3 1015.2 0.0
21/09:30am - - - - - SE 37 50 20 27 1015.2 1015.1 0.0
21/09:16am - - - - - SE 32 52 17 28 1015.0 1014.9 0.0
21/09:00am - - - - - SSE 32 43 17 23 1014.7 1014.6 0.0
21/08:30am - - - - - SSE 35 46 19 25 1014.4 1014.3 0.0
21/08:00am - - - - - SSE 30 39 16 21 1014.2 1014.1 0.0
21/07:30am - - - - - SSE 26 35 14 19 1013.8 1013.7 0.0
21/07:00am 16.9 10.5 5.2 46 5.6 SSE 28 37 15 20 1013.5 1013.4 0.0
21/06:30am 19.3 13.4 7.7 47 5.9 SSE 28 37 15 20 1013.2 1013.1 0.0
21/06:00am 19.7 13.4 7.4 45 6.3 SSE 30 41 16 22 1012.9 1012.8 0.0
21/05:30am 19.9 14.0 7.6 45 6.3 SSE 28 43 15 23 1012.4 1012.3 0.0
21/05:00am 20.3 14.0 7.3 43 6.6 SSE 30 43 16 23 1012.1 1012.0 0.0
21/04:30am 20.7 14.3 7.0 41 7.0 SSE 30 37 16 20 1012.3 1012.2 0.0
21/04:00am 20.9 14.9 7.2 41 7.0 SSE 28 43 15 23 1012.4 1012.3 0.0
21/03:30am 21.1 15.1 7.0 40 7.2 SSE 28 35 15 19 1012.4 1012.3 0.0
21/03:00am 20.9 15.9 7.9 43 6.7 SSE 24 32 13 17 1012.2 1012.1 0.0
21/02:30am 20.2 15.5 9.2 49 5.8 S 24 32 13 17 1012.3 1012.2 0.0
21/02:00am 19.9 16.0 9.5 51 5.5 S 20 28 11 15 1012.5 1012.4 0.0
21/01:30am 20.2 16.5 9.5 50 5.7 S 19 22 10 12 1012.8 1012.7 0.0
21/01:00am 20.4 17.1 9.6 50 5.8 S 17 20 9 11 1013.2 1013.1 0.0
21/12:30am 21.3 17.5 9.2 46 6.4 S 19 22 10 12 1013.4 1013.3 0.0
21/12:00am 21.6 18.2 9.2 45 6.6 SSE 17 20 9 11 1013.3 1013.2 0.0
 
Date/Time
EST
Temp
°C
App
Temp
°C
Dew
Point
°C
Rel
Hum
%
Delta-T
°C
Wind Press
QNH
hPa
Press
MSL
hPa
Rain since
9am
mm
Dir  Spd
km/h
Gust
km/h
Spd
kts
Gust
kts
20/11:30pm 22.6 18.6 8.3 40 7.5 SSE 19 26 10 14 1013.5 1013.4 0.0
20/11:00pm 23.0 18.9 8.7 40 7.6 SSE 20 30 11 16 1013.6 1013.5 0.0
20/10:30pm 23.5 19.5 9.1 40 7.8 SSE 20 30 11 16 1013.6 1013.5 0.0
20/10:00pm 24.4 19.8 9.6 39 8.1 SSE 24 32 13 17 1013.7 1013.6 0.0
20/09:30pm 24.3 20.7 10.6 42 7.6 SSE 20 30 11 16 1014.0 1013.9 0.0
20/09:00pm 23.0 20.7 12.9 53 5.8 S 17 20 9 11 1013.9 1013.8 0.0
20/08:30pm 23.1 21.7 13.3 54 5.7 S 13 20 7 11 1013.7 1013.6 0.0
20/08:00pm 23.5 21.8 13.7 54 5.7 S 15 19 8 10 1013.4 1013.3 0.0
20/07:30pm 24.6 22.8 13.2 49 6.6 S 15 19 8 10 1013.2 1013.1 0.0
20/07:00pm 25.6 23.3 13.1 46 7.3 S 17 22 9 12 1012.8 1012.7 0.0
20/06:30pm 26.2 24.1 13.7 46 7.4 S 17 20 9 11 1012.2 1012.1 0.0
20/06:00pm 27.7 24.9 13.3 41 8.5 SSE 20 26 11 14 1011.9 1011.8 0.0
20/05:30pm 29.3 25.6 12.7 36 9.8 SSE 24 35 13 19 1011.6 1011.5 0.0
20/05:00pm 29.9 24.8 13.2 36 9.9 S 32 41 17 22 1011.3 1011.2 0.0
20/04:30pm 30.4 26.4 14.1 37 9.8 SSE 28 37 15 20 1011.1 1011.0 0.0
20/04:00pm 30.6 26.2 13.0 34 10.5 SSE 28 41 15 22 1010.9 1010.8 0.0
20/03:30pm 30.4 25.7 13.2 35 10.2 SSE 30 43 16 23 1010.9 1010.8 0.0
20/03:00pm 30.7 25.9 13.0 33 10.5 SSE 30 41 16 22 1011.0 1010.9 0.0
20/02:30pm 30.5 26.1 12.9 34 10.4 SSE 28 35 15 19 1011.5 1011.4 0.0
20/02:00pm 30.4 25.9 13.7 36 10.0 SSE 30 41 16 22 1011.9 1011.8 0.0
20/01:30pm 30.0 25.1 12.4 34 10.3 SSE 30 41 16 22 1012.5 1012.4 0.0
20/01:00pm 29.9 24.3 11.4 32 10.7 SSE 32 43 17 23 1012.9 1012.8 0.0
20/12:30pm 28.6 22.9 11.2 34 10.0 SSE 32 43 17 23 1013.1 1013.0 0.0
20/12:00pm 28.7 22.7 10.8 33 10.2 SSE 33 44 18 24 1013.6 1013.5 0.0
20/11:30am 28.4 22.8 11.5 35 9.7 SSE 32 39 17 21 1013.9 1013.8 0.0
20/11:00am 27.8 21.8 10.1 33 9.9 SE 32 43 17 23 1014.1 1014.0 0.0
20/10:30am 26.8 20.0 9.2 33 9.7 SSE 35 50 19 27 1014.1 1014.0 0.0
20/10:00am 26.1 19.1 8.6 33 9.5 SSE 35 52 19 28 1014.1 1014.0 0.0
20/09:30am 25.4 17.6 8.4 34 9.1 SSE 39 52 21 28 1013.9 1013.8 0.0
20/09:14am 24.9 17.7 7.5 33 9.2 SSE 35 54 19 29 1013.9 1013.8 0.0
20/09:00am 24.8 18.2 8.7 36 8.7 SSE 33 46 18 25 1013.9 1013.8 0.0
20/08:30am 23.9 17.4 8.3 37 8.3 SSE 32 44 17 24 1013.7 1013.6 0.0
20/08:12am 23.3 16.8 8.2 38 8.0 SSE 32 50 17 27 1013.6 1013.5 0.0
20/08:00am 23.0 17.4 8.7 40 7.6 SSE 28 43 15 23 1013.6 1013.5 0.0
20/07:30am 22.2 16.5 8.3 41 7.3 SSE 28 39 15 21 1013.3 1013.2 0.0
20/07:00am 22.0 16.6 8.2 41 7.2 SSE 26 37 14 20 1012.8 1012.7 0.0
20/06:30am 22.1 16.8 8.6 42 7.1 SSE 26 33 14 18 1012.5 1012.4 0.0
20/06:00am 22.3 17.6 9.1 43 7.1 SSE 24 33 13 18 1012.1 1012.0 0.0
20/05:30am 22.6 18.0 9.7 44 7.0 SSE 24 32 13 17 1011.8 1011.7 0.0
20/05:00am 22.8 18.3 9.9 44 7.0 SSE 24 35 13 19 1011.7 1011.6 0.0
20/04:30am 23.1 19.0 10.2 44 7.1 SSE 22 28 12 15 1011.5 1011.4 0.0
20/04:00am 23.5 19.2 10.9 45 7.0 SSE 24 32 13 17 1011.5 1011.4 0.0
20/03:30am 23.9 19.9 11.9 47 6.8 SSE 24 35 13 19 1011.4 1011.3 0.0
20/03:00am 24.1 20.2 13.3 51 6.3 S 26 37 14 20 1011.1 1011.0 0.0
20/02:30am 24.2 21.5 14.6 55 5.7 S 22 33 12 18 1011.3 1011.2 0.0
20/02:00am 24.4 22.6 16.1 60 5.1 S 20 28 11 15 1011.2 1011.1 0.0
20/01:30am 24.9 23.2 16.3 59 5.3 S 20 28 11 15 1011.2 1011.1 0.0
20/01:00am 25.7 23.3 16.5 56 5.7 SSE 24 35 13 19 1011.1 1011.0 0.0
20/12:30am 26.2 24.2 17.3 58 5.6 SSE 24 32 13 17 1011.4 1011.3 0.0
20/12:00am 26.3 25.5 18.4 61 5.0 S 20 28 11 15 1011.4 1011.3 0.0
 
Date/Time
EST
Temp
°C
App
Temp
°C
Dew
Point
°C
Rel
Hum
%
Delta-T
°C
Wind Press
QNH
hPa
Press
MSL
hPa
Rain since
9am
mm
Dir  Spd
km/h
Gust
km/h
Spd
kts
Gust
kts
19/11:30pm 25.1 26.4 20.1 74 3.2 S 13 15 7 8 1011.5 1011.4 0.0
19/11:00pm 25.3 27.5 20.3 74 3.3 SSE 9 11 5 6 1011.8 1011.7 0.0
19/10:30pm 25.9 28.0 20.2 71 3.7 SSE 9 11 5 6 1011.8 1011.7 0.0
19/10:00pm 26.7 28.0 20.1 67 4.3 S 13 15 7 8 1011.7 1011.6 0.0
19/09:30pm 26.9 27.5 20.3 67 4.3 S 17 22 9 12 1011.7 1011.6 0.0
19/09:27pm 26.9 27.4 20.0 66 4.5 S 17 22 9 12 1011.7 1011.6 0.0
19/09:00pm 26.9 27.6 20.5 68 4.2 S 17 20 9 11 1011.7 1011.6 0.0
19/08:47pm 26.9 28.1 20.7 69 4.1 SSW 15 20 8 11 1011.6 1011.5 0.0
19/08:30pm 26.8 28.3 21.3 72 3.7 SSW 15 19 8 10 1011.5 1011.4 0.0
19/08:00pm 26.3 28.5 21.9 77 2.9 SSW 13 13 7 7 1011.2 1011.1 0.0
19/07:30pm 26.8 29.4 22.0 75 3.2 S 11 13 6 7 1010.8 1010.7 0.0

Other formats

Comma delimited format used in spreadsheet applications
http://www.bom.gov.au/fwo/IDQ60801/IDQ60801.94260.axf

JavaScript Object Notation format (JSON) in row-major order
http://www.bom.gov.au/fwo/IDQ60801/IDQ60801.94260.json

Data quality

Most of these data are generated automatically and are frequently updated. Quality checks on data are not normally performed. It is possible for incorrect values to appear. Refer to information at About Latest Weather Observations and please check the disclaimer before using these data.